Aduana, Mexico

7:11 PM EST on January 17, 2018 (GMT -0500)
Isla Mujeres, Mexico | | Change Station

Elev 20 ft 21.23 °N, 86.73 °W | Updated 21 seconds ago

Overcast
Overcast
74.6 °F
Feels Like 76 °F
N
21.0
Wind Variable Wind from NNE

Today
High -- | Low -- °F
--% Chance of Precip.
Yesterday
High -- | Low -- °F
Precip. -- in
Pressure 30.17 in
Visibility 7.0 miles
Clouds Mostly Cloudy 1500 ft
Mostly Cloudy 8000 ft
Overcast 25000 ft
Heat Index 76 °F
Dew Point 63 °F
Humidity 69%
Rainfall 3.67 in
Snow Depth Not available.
7:27 AM 6:28 PM
New Moon, 1% visible
METAR MMCZ 172346Z 36014KT 7SM BKN015 BKN080 OVC250 22/19 A3016 RMK SLP217 52004 907 8/477 CB ALQDS
Pressure 30.17 in
Visibility 7.0 miles
Clouds Mostly Cloudy 1500 ft
Mostly Cloudy 8000 ft
Overcast 25000 ft
Heat Index 76 °F
Dew Point 63 °F
Humidity 69%
Rainfall 3.67 in
Snow Depth Not available.
7:27 AM 6:28 PM
New Moon, 1% visible
METAR MMCZ 172346Z 36014KT 7SM BKN015 BKN080 OVC250 22/19 A3016 RMK SLP217 52004 907 8/477 CB ALQDS

Get Severe Weather Alerts

Thanks for signing up!

Be on the lookout for a verification email in your inbox.

You'll start receiving the daily forecast at 6 AM.

×

10-Day Weather Forecast

No radar image for this location.
×

Almanac

Astronomy

Jan. 17, 2018 Rise Set
Actual Time
Civil Twilight
Nautical Twilight
Astronomical Twilight
Moon
Length of Visible Light
Length of Day
Tomorrow will be .
, % of the Moon is Illuminated

Today's Extremes

Country Highs Country Lows

Community

WunderPhotos

Category 6

Welcome to Category 6. This is the collective home for Weather Underground's featured writeups by Dr. Jeff Masters (right), Bob Henson (left), Chris Burt, and other regular contributors.

Nearby

Air Quality

  Air Quality AQ Index Pollutant
Not available.

Snow Depth

Station Depth Elevation

Earthquake Activity

City Distance Mag. Time & Date
Minimum magnitude displayed is 2.5.

Coastal Water Temperatures

Place Temperature

Stations

Nearby Weather Stations

Station Location Temp. Windchill Dew Point Humidity Wind Precip. Elev Updated Type